Corte Madera, CA

1:01 PM PDT on August 22, 2014 (GMT -0700)
Horse Hill | Change Station
CLOSE
Current Station
Personal Weather Station
Location: Mill Valley, CA
Elevation: 20 ft
Nearby Weather Stations

Elev 20 ft 37.91 °N, 122.52 °W | Updated 3 minutes ago

Partly Cloudy
Partly Cloudy
65.3 °F
Feels Like 65.3 °F
N
1.0
Wind Variable Wind from North
Gusts 6.0 mph

Today
High -- | Low -- °F
--% Chance of Precip.
Yesterday
High -- | Low -- °F
Precip. -- in
6:31 AM 7:53 PM
Waning Crescent, 7% visible
Pressure 29.93 in
Visibility 10.0 miles
Clouds Few 1300 ft
Dew Point 57 °F
Humidity 74%
Rainfall 0.00 in
Snow Depth Not available.
UV 8.6 out of 12
Pollen 5.70 out of 12
PM2.5 Moderate
Flu Activity Not available.
METAR KOAK 221953Z 19004KT 10SM FEW013 22/13 A2992 RMK AO2 SLP133 T02220128

More Conditions Fewer Conditions

Pressure 29.93 in
Visibility 10.0 miles
Clouds Few 1300 ft
Dew Point 57 °F
Humidity 74%
Rainfall 0.00 in
Snow Depth Not available.
UV 8.6 out of 12
Pollen 5.70 out of 12
PM2.5 Moderate
Flu Activity Not available.
METAR KOAK 221953Z 19004KT 10SM FEW013 22/13 A2992 RMK AO2 SLP133 T02220128

More Conditions Fewer Conditions

10-Day Weather Forecast

Almanac

Astronomy

Aug. 22, 2014 Rise Set
Actual Time 6:31 AM PDT 7:53 PM PDT
Civil Twilight 6:03 AM PDT 8:21 PM PDT
Nautical Twilight 5:30 AM PDT 8:53 PM PDT
Astronomical Twilight 4:56 AM PDT 9:28 PM PDT
Moon 4:00 AM PDT 6:04 PM PDT
Length of Visible Light 14h 17m
Length of Day
13h 22m
Tomorrow will be 2m 15s shorter.
Waning Crescent, 7% of the Moon is Illuminated
Today
Waning Crescent
Aug 25
New
Sep 2
First Quarter
Sep 8
Full
Sep 15
Last Quarter

Today's Extremes

State Highs State Lows

Community

WunderPhotos

Upload Photos

1,746,239 photos uploaded!

Nearby

Air Quality

  Air Quality AQ Index Pollutant
Yesterday Good
PM2.5
Yesterday Good
OZONE
Current Moderate
PM2.5
Friday Good
PM2.5
Saturday Good
PM2.5
Sunday Moderate
PM2.5
Monday Moderate
PM2.5
Tuesday Moderate
PM2.5
Wednesday Moderate
PM2.5

Snow Depth

Station Depth Elevation
Echo Peak 0 in 7800 ft
CSS Lab 0 in 6900 ft
Tahoe City Cross 0 in 6750 ft
Leavitt Meadows 0 in 7200 ft
Summit Meadow 0 in 9122 ft

Earthquake Activity

City Distance Mag. Time & Date
Berkeley, California 15 miles 2.6 7:41 PM PDT
2014-08-16
King City, California 144 miles 2.7 10:26 PM PDT
2014-08-15
Minimum magnitude displayed is 2.5.

Coastal Water Temperatures

Place Temperature
San Francisco, CA 64.0 °F
Richmond, CA 66.9 °F
Port Chicago, CA 70.0 °F

Nearby Weather Stations